createdAt,value
2017-10-25T00:00:44.034Z,79.60
2017-10-25T00:03:11.567Z,79.50
2017-10-25T00:05:39.148Z,79.60
2017-10-25T00:08:06.680Z,79.70
2017-10-25T00:10:34.211Z,79.60
2017-10-25T00:13:02.531Z,80.00
2017-10-25T00:15:30.059Z,79.80
2017-10-25T00:17:58.351Z,80.00
2017-10-25T00:20:25.911Z,80.00
2017-10-25T00:22:53.451Z,80.00
2017-10-25T00:25:21.747Z,79.80
2017-10-25T00:27:49.579Z,79.80
2017-10-25T00:30:17.107Z,79.80
2017-10-25T00:32:44.631Z,79.70
2017-10-25T00:35:12.192Z,79.80
2017-10-25T00:37:39.726Z,79.80
2017-10-25T00:40:07.263Z,80.40
2017-10-25T00:42:34.820Z,79.80
2017-10-25T00:45:02.365Z,79.80
2017-10-25T00:47:30.528Z,79.70
2017-10-25T00:49:58.114Z,79.60
2017-10-25T00:52:25.651Z,79.60
2017-10-25T00:54:53.183Z,79.40
2017-10-25T00:57:20.743Z,79.40
2017-10-25T00:59:48.262Z,79.30
2017-10-25T01:02:16.410Z,79.60
2017-10-25T01:04:43.977Z,79.50
2017-10-25T01:07:11.504Z,79.20
2017-10-25T01:09:39.035Z,79.10
2017-10-25T01:12:07.680Z,79.10
2017-10-25T01:14:35.211Z,79.00
2017-10-25T01:17:02.744Z,79.00
2017-10-25T01:19:30.299Z,79.20
2017-10-25T01:21:57.832Z,79.30
2017-10-25T01:24:25.367Z,79.10
2017-10-25T01:26:52.931Z,79.10
2017-10-25T01:29:20.468Z,79.00
2017-10-25T01:31:48.000Z,78.90
2017-10-25T01:34:16.475Z,79.00
2017-10-25T01:36:44.012Z,78.90
2017-10-25T01:39:11.552Z,78.90
2017-10-25T01:41:39.099Z,78.90
2017-10-25T01:44:06.632Z,78.50
2017-10-25T01:46:34.164Z,78.50
2017-10-25T01:49:01.720Z,78.60
2017-10-25T01:51:29.262Z,78.60
2017-10-25T01:53:56.800Z,78.70
2017-10-25T01:56:24.375Z,78.50
2017-10-25T01:58:52.316Z,78.40
2017-10-25T02:01:19.842Z,78.30
2017-10-25T02:03:47.420Z,78.20
2017-10-25T02:06:16.451Z,78.10
2017-10-25T02:08:43.975Z,78.00
2017-10-25T02:11:11.532Z,78.00
2017-10-25T02:13:39.068Z,77.70
2017-10-25T02:16:06.591Z,77.30
2017-10-25T02:18:34.167Z,77.40
2017-10-25T02:21:01.692Z,77.20
2017-10-25T02:23:29.227Z,77.30
2017-10-25T02:25:57.551Z,77.30
2017-10-25T02:28:25.084Z,77.30
2017-10-25T02:30:53.023Z,77.20
2017-10-25T02:33:20.588Z,77.30
2017-10-25T02:35:48.888Z,77.60
2017-10-25T02:38:16.471Z,77.60
2017-10-25T02:40:44.056Z,78.10
2017-10-25T02:43:11.595Z,77.70
2017-10-25T02:45:39.136Z,77.70
2017-10-25T02:48:06.700Z,77.50
2017-10-25T02:50:34.235Z,77.60
2017-10-25T02:53:01.773Z,77.40
2017-10-25T02:55:30.096Z,77.70
2017-10-25T02:57:57.635Z,77.60
2017-10-25T03:00:25.163Z,78.00
2017-10-25T03:02:52.752Z,77.60
2017-10-25T03:05:20.296Z,77.20
2017-10-25T03:07:48.599Z,77.10
2017-10-25T03:10:16.516Z,77.00
2017-10-25T03:12:44.044Z,76.70
2017-10-25T03:15:11.576Z,76.80
2017-10-25T03:17:39.126Z,77.00
2017-10-25T03:20:07.426Z,77.80
2017-10-25T03:22:35.732Z,77.70
2017-10-25T03:25:03.323Z,77.70
2017-10-25T03:27:30.865Z,77.70
2017-10-25T03:29:58.408Z,77.50
2017-10-25T03:32:26.259Z,77.50
2017-10-25T03:34:53.800Z,77.60
2017-10-25T03:37:21.335Z,77.40
2017-10-25T03:39:49.655Z,77.30
2017-10-25T03:42:17.188Z,77.30
2017-10-25T03:44:44.724Z,77.10
2017-10-25T03:47:12.300Z,77.10
2017-10-25T03:49:40.599Z,76.70
2017-10-25T03:52:08.132Z,76.60
2017-10-25T03:54:36.451Z,76.30
2017-10-25T03:57:03.971Z,76.90
2017-10-25T03:59:32.276Z,77.10
2017-10-25T04:01:59.827Z,77.00
2017-10-25T04:04:27.367Z,76.90
2017-10-25T04:06:55.671Z,76.60
2017-10-25T04:09:23.256Z,76.50
2017-10-25T04:11:50.791Z,76.30
2017-10-25T04:14:18.352Z,75.90
2017-10-25T04:16:45.912Z,75.60
2017-10-25T04:19:15.428Z,76.60
2017-10-25T04:21:42.959Z,75.80
2017-10-25T04:24:10.529Z,75.40
2017-10-25T04:26:38.059Z,75.00
2017-10-25T04:29:05.595Z,75.20
2017-10-25T04:31:33.187Z,75.30
2017-10-25T04:34:00.720Z,75.20
2017-10-25T04:36:28.261Z,75.30
2017-10-25T04:38:55.833Z,75.10
2017-10-25T04:41:23.380Z,75.20
2017-10-25T04:43:50.908Z,75.20
2017-10-25T04:46:18.471Z,75.30
2017-10-25T04:48:46.003Z,75.40
2017-10-25T04:51:14.522Z,75.80
2017-10-25T04:53:42.101Z,75.90
2017-10-25T04:56:09.637Z,75.60
2017-10-25T04:58:37.163Z,75.20
2017-10-25T05:01:05.508Z,74.70
2017-10-25T05:03:33.047Z,74.10
2017-10-25T05:06:00.580Z,75.40
2017-10-25T05:08:28.126Z,75.00
2017-10-25T05:10:58.120Z,75.30
2017-10-25T05:13:25.650Z,75.10
2017-10-25T05:15:53.223Z,75.20
2017-10-25T05:18:20.755Z,75.80
2017-10-25T05:20:48.287Z,75.90
2017-10-25T05:23:16.447Z,76.40
2017-10-25T05:25:44.739Z,76.90
2017-10-25T05:28:13.956Z,76.90
2017-10-25T05:30:41.511Z,76.90
2017-10-25T05:33:09.044Z,76.70
2017-10-25T05:35:36.919Z,75.50
2017-10-25T05:38:04.503Z,75.20
2017-10-25T05:40:32.035Z,75.00
2017-10-25T05:42:59.570Z,75.10
2017-10-25T05:45:27.127Z,75.10
2017-10-25T05:47:54.655Z,75.00
2017-10-25T05:50:22.192Z,74.80
2017-10-25T05:52:49.751Z,74.70
2017-10-25T05:55:17.296Z,74.90
2017-10-25T05:57:45.591Z,74.50
2017-10-25T06:00:15.548Z,74.50
2017-10-25T06:02:43.084Z,74.50
2017-10-25T06:05:10.620Z,74.50
2017-10-25T06:07:38.180Z,74.40
2017-10-25T06:10:05.715Z,74.30
2017-10-25T06:12:33.238Z,74.50
2017-10-25T06:15:00.796Z,75.30
2017-10-25T06:17:28.328Z,74.60
2017-10-25T06:19:55.855Z,74.60
2017-10-25T06:22:23.451Z,74.50
2017-10-25T06:24:50.987Z,74.20
2017-10-25T06:27:18.523Z,74.20
2017-10-25T06:29:46.079Z,74.30
2017-10-25T06:32:15.493Z,74.20
2017-10-25T06:34:43.041Z,73.80
2017-10-25T06:37:10.854Z,74.40
2017-10-25T06:39:38.495Z,73.90
2017-10-25T06:44:34.340Z,73.70
2017-10-25T06:47:01.871Z,73.50
2017-10-25T06:49:29.412Z,73.60
2017-10-25T06:51:56.966Z,74.30
2017-10-25T06:54:24.492Z,73.30
2017-10-25T06:56:52.028Z,73.30
2017-10-25T06:59:20.360Z,72.80
2017-10-25T07:01:47.892Z,72.80
2017-10-25T07:04:16.377Z,72.50
2017-10-25T07:06:43.972Z,72.50
2017-10-25T07:09:11.507Z,72.20
2017-10-25T07:11:39.035Z,72.00
2017-10-25T07:14:06.617Z,71.50
2017-10-25T07:16:34.167Z,71.40
2017-10-25T07:19:01.704Z,70.80
2017-10-25T07:21:29.291Z,70.30
2017-10-25T07:23:56.816Z,69.90
2017-10-25T07:26:24.361Z,69.30
2017-10-25T07:28:51.952Z,69.70
2017-10-25T07:31:19.580Z,68.80
2017-10-25T07:33:47.115Z,68.70
2017-10-25T07:36:16.504Z,68.80
2017-10-25T07:38:44.334Z,68.40
2017-10-25T07:41:13.603Z,68.20
2017-10-25T07:43:41.167Z,68.10
2017-10-25T07:46:08.699Z,67.00
2017-10-25T07:48:36.231Z,66.00
2017-10-25T07:51:03.816Z,65.40
2017-10-25T07:53:31.344Z,65.40
2017-10-25T07:55:59.645Z,63.30
2017-10-25T07:58:27.205Z,63.30
2017-10-25T08:00:54.745Z,62.10
2017-10-25T08:03:22.286Z,59.20
2017-10-25T08:05:50.697Z,57.40
2017-10-25T08:08:18.236Z,57.40
2017-10-25T08:10:45.771Z,56.00
2017-10-25T08:13:24.640Z,54.50
2017-10-25T08:20:27.509Z,55.10
2017-10-25T08:22:55.043Z,54.20
2017-10-25T08:25:22.579Z,52.60
2017-10-25T08:27:50.131Z,51.60
2017-10-25T08:30:17.659Z,50.30
2017-10-25T08:32:45.183Z,50.20
2017-10-25T08:35:12.783Z,50.30
2017-10-25T08:37:41.079Z,49.70
2017-10-25T08:40:09.132Z,49.70
2017-10-25T08:42:36.687Z,50.40
2017-10-25T08:45:04.250Z,50.60
2017-10-25T08:47:31.784Z,51.10
2017-10-25T08:49:59.339Z,52.30
2017-10-25T08:52:26.876Z,54.80
2017-10-25T08:54:54.503Z,56.40
2017-10-25T08:57:22.235Z,55.60
2017-10-25T08:59:49.768Z,55.50
2017-10-25T09:02:17.376Z,55.80
2017-10-25T09:04:45.720Z,56.90
2017-10-25T09:07:24.770Z,56.90
2017-10-25T09:10:51.289Z,54.30
2017-10-25T09:13:18.818Z,54.30
2017-10-25T09:15:46.347Z,53.60
2017-10-25T09:18:15.754Z,52.40
2017-10-25T09:20:44.051Z,49.70
2017-10-25T09:23:11.584Z,49.50
2017-10-25T09:25:39.918Z,48.50
2017-10-25T09:28:07.468Z,48.50
2017-10-25T09:30:35.026Z,49.40
2017-10-25T09:33:02.581Z,50.80
2017-10-25T09:35:30.110Z,51.40
2017-10-25T09:37:58.508Z,53.60
2017-10-25T09:40:26.335Z,53.60
2017-10-25T09:42:53.871Z,54.10
2017-10-25T09:45:21.411Z,54.40
2017-10-25T09:47:49.743Z,54.00
2017-10-25T09:50:17.283Z,54.00
2017-10-25T09:52:44.818Z,54.00
2017-10-25T09:55:12.384Z,53.60
2017-10-25T09:57:39.910Z,53.30
2017-10-25T10:00:07.585Z,53.20
2017-10-25T10:02:35.175Z,53.30
2017-10-25T10:05:02.710Z,52.90
2017-10-25T10:07:30.248Z,52.80
2017-10-25T10:09:57.802Z,48.70
2017-10-25T10:12:25.340Z,49.30
2017-10-25T10:14:52.878Z,49.20
2017-10-25T10:17:20.435Z,48.40
2017-10-25T10:19:47.968Z,49.30
2017-10-25T10:22:16.478Z,50.10
2017-10-25T10:24:44.099Z,48.70
2017-10-25T10:27:11.635Z,50.70
2017-10-25T10:29:39.976Z,50.40
2017-10-25T10:32:07.531Z,50.40
2017-10-25T10:34:35.064Z,48.00
2017-10-25T10:37:03.379Z,48.30
2017-10-25T10:39:30.940Z,47.00
2017-10-25T10:41:58.898Z,48.40
2017-10-25T10:44:26.664Z,47.50
2017-10-25T10:46:54.251Z,47.00
2017-10-25T10:49:21.792Z,45.80
2017-10-25T10:51:49.319Z,47.70
2017-10-25T10:54:16.868Z,47.60
2017-10-25T10:56:44.403Z,47.10
2017-10-25T10:59:14.533Z,47.30
2017-10-25T11:01:42.091Z,47.20
2017-10-25T11:04:10.309Z,47.30
2017-10-25T11:06:37.844Z,48.10
2017-10-25T11:09:05.492Z,48.50
2017-10-25T11:11:33.026Z,48.10
2017-10-25T11:14:00.559Z,47.80
2017-10-25T11:16:28.119Z,49.10
2017-10-25T11:18:55.652Z,49.00
2017-10-25T11:21:23.192Z,50.40
2017-10-25T11:23:50.747Z,50.90
2017-10-25T11:26:18.284Z,50.60
2017-10-25T11:28:45.820Z,48.70
2017-10-25T11:31:24.463Z,49.80
2017-10-25T11:36:11.271Z,47.70
2017-10-25T11:38:38.851Z,46.50
2017-10-25T11:41:06.388Z,47.50
2017-10-25T11:43:33.916Z,48.80
2017-10-25T11:46:01.463Z,46.30
2017-10-25T11:48:28.999Z,48.30
2017-10-25T11:50:56.523Z,46.90
2017-10-25T11:53:24.112Z,48.80
2017-10-25T11:55:51.646Z,48.50
2017-10-25T11:58:19.192Z,48.80
2017-10-25T12:00:46.747Z,49.20
2017-10-25T12:03:16.319Z,47.00
2017-10-25T12:05:43.843Z,47.00
2017-10-25T12:08:11.400Z,48.40
2017-10-25T12:10:39.584Z,48.20
2017-10-25T12:13:07.131Z,48.20
2017-10-25T12:15:34.719Z,48.20
2017-10-25T12:18:02.256Z,47.80
2017-10-25T12:20:29.796Z,46.30
2017-10-25T12:22:57.355Z,47.00
2017-10-25T12:25:24.889Z,46.40
2017-10-25T12:27:52.431Z,45.80
2017-10-25T12:30:20.375Z,46.50
2017-10-25T12:32:47.913Z,47.40
2017-10-25T12:35:16.489Z,45.60
2017-10-25T12:37:44.079Z,46.20
2017-10-25T12:40:11.704Z,48.40
2017-10-25T12:42:39.236Z,48.90
2017-10-25T12:45:06.791Z,48.50
2017-10-25T12:47:34.324Z,48.20
2017-10-25T12:50:02.627Z,48.20
2017-10-25T12:52:30.211Z,48.20
2017-10-25T12:54:57.776Z,47.70
2017-10-25T13:37:20.180Z,51.00
2017-10-25T13:39:47.720Z,51.50
2017-10-25T13:42:16.447Z,52.20
2017-10-25T13:44:44.012Z,50.90
2017-10-25T13:47:12.115Z,50.40
2017-10-25T13:49:39.653Z,51.40
2017-10-25T13:52:07.215Z,49.80
2017-10-25T13:54:34.757Z,50.40
2017-10-25T13:57:02.292Z,51.80
2017-10-25T13:59:30.031Z,52.60
2017-10-25T14:04:36.038Z,54.20
2017-10-25T14:07:03.568Z,53.20
2017-10-25T14:09:31.248Z,54.40
2017-10-25T14:11:58.824Z,53.10
2017-10-25T14:14:26.357Z,53.70
2017-10-25T14:16:58.092Z,53.80
2017-10-25T14:19:26.455Z,51.90
2017-10-25T14:21:54.395Z,51.80
2017-10-25T14:24:21.918Z,53.00
2017-10-25T14:27:01.169Z,53.10
2017-10-25T14:29:28.756Z,53.50
2017-10-25T14:31:56.288Z,53.00
2017-10-25T14:34:23.875Z,53.80
2017-10-25T14:36:51.423Z,53.30
2017-10-25T14:39:19.722Z,53.50
2017-10-25T14:41:47.311Z,53.40
2017-10-25T14:44:16.336Z,53.50
2017-10-25T14:46:43.901Z,53.50
2017-10-25T14:49:11.788Z,54.00
2017-10-25T15:03:04.924Z,55.20
2017-10-25T15:05:32.541Z,56.30
2017-10-25T15:08:00.143Z,56.60
2017-10-25T15:10:27.720Z,56.50
2017-10-25T15:12:55.280Z,56.60
2017-10-25T15:15:24.065Z,57.20
2017-10-25T15:17:51.621Z,57.70
2017-10-25T15:20:19.794Z,57.90
2017-10-25T15:22:47.422Z,58.00
2017-10-25T15:25:19.064Z,58.20
2017-10-25T15:27:46.785Z,58.70
2017-10-25T15:30:27.911Z,58.50
2017-10-25T15:35:39.026Z,59.10
2017-10-25T15:38:06.695Z,60.10
2017-10-25T15:40:34.342Z,59.90
2017-10-25T15:43:01.973Z,60.40
2017-10-25T15:45:30.715Z,62.40
2017-10-25T15:47:58.354Z,62.50
2017-10-25T15:50:26.004Z,62.40
2017-10-25T15:52:53.970Z,63.00
2017-10-25T15:57:54.424Z,62.50
2017-10-25T16:00:22.705Z,62.40
2017-10-25T16:02:50.405Z,63.30
2017-10-25T16:05:22.486Z,63.90
2017-10-25T16:07:50.184Z,63.70
2017-10-25T16:10:17.840Z,63.90
2017-10-25T16:15:43.557Z,64.20
2017-10-25T16:18:11.915Z,64.60
2017-10-25T16:20:39.476Z,64.50
2017-10-25T16:23:07.107Z,64.30
2017-10-25T16:25:34.675Z,65.20
2017-10-25T16:28:02.301Z,65.30
2017-10-25T16:30:29.920Z,65.30
2017-10-25T16:32:57.561Z,65.70
2017-10-25T16:35:25.153Z,66.10
2017-10-25T16:37:53.691Z,66.40
2017-10-25T16:40:21.251Z,66.70
2017-10-25T16:42:48.784Z,66.80
2017-10-25T16:45:17.326Z,67.30
2017-10-25T16:47:44.904Z,67.20
2017-10-25T16:53:16.416Z,67.60
2017-10-25T16:55:43.955Z,67.80
2017-10-25T16:58:12.335Z,67.70
2017-10-25T17:00:40.683Z,68.20
2017-10-25T17:03:08.212Z,68.00
2017-10-25T17:05:35.744Z,68.60
2017-10-25T17:08:03.327Z,68.80
2017-10-25T17:10:30.876Z,68.90
2017-10-25T17:12:58.434Z,69.00
2017-10-25T17:15:26.036Z,69.10
2017-10-25T17:17:53.601Z,69.30
2017-10-25T17:20:22.562Z,69.50
2017-10-25T17:22:50.174Z,69.60
2017-10-25T17:25:17.711Z,70.00
2017-10-25T17:27:45.247Z,70.00
2017-10-25T17:30:13.735Z,70.10
2017-10-25T17:32:41.275Z,69.90
2017-10-25T17:35:08.807Z,70.10
2017-10-25T17:37:37.155Z,70.40
2017-10-25T17:40:04.758Z,70.20
2017-10-25T17:42:32.316Z,70.50
2017-10-25T17:45:00.724Z,70.70
2017-10-25T17:47:28.306Z,70.80
2017-10-25T17:49:55.888Z,71.10
2017-10-25T17:52:23.472Z,71.50
2017-10-25T17:54:51.795Z,71.90
2017-10-25T17:57:20.157Z,72.20
2017-10-25T17:59:47.763Z,72.00
2017-10-25T18:02:17.216Z,72.20
2017-10-25T18:04:45.961Z,72.10
2017-10-25T18:07:14.839Z,72.40
2017-10-25T18:09:42.372Z,72.50
2017-10-25T18:12:09.908Z,72.70
2017-10-25T18:14:37.468Z,72.90
2017-10-25T18:17:05.005Z,73.10
2017-10-25T18:19:33.421Z,73.20
2017-10-25T18:22:00.989Z,73.20
2017-10-25T18:24:28.542Z,73.40
2017-10-25T18:26:56.124Z,73.50
2017-10-25T18:29:23.731Z,73.60
2017-10-25T18:31:52.031Z,73.80
2017-10-25T18:34:19.567Z,73.70
2017-10-25T18:36:47.891Z,74.00
2017-10-25T18:39:16.516Z,74.00
2017-10-25T18:41:44.058Z,73.90
2017-10-25T18:44:11.628Z,74.20
2017-10-25T18:46:39.164Z,74.40
2017-10-25T18:49:06.692Z,74.60
2017-10-25T18:51:34.696Z,74.70
2017-10-25T18:54:02.220Z,74.80
2017-10-25T18:56:29.754Z,74.90
2017-10-25T18:58:58.232Z,75.10
2017-10-25T19:01:26.532Z,75.20
2017-10-25T19:03:54.064Z,75.20
2017-10-25T19:06:21.624Z,75.20
2017-10-25T19:08:49.607Z,75.30
2017-10-25T19:11:17.899Z,75.40
2017-10-25T19:13:45.478Z,75.30
2017-10-25T19:16:14.782Z,75.30
2017-10-25T19:25:12.339Z,75.50
2017-10-25T19:27:39.868Z,76.70
2017-10-25T19:30:07.423Z,76.80
2017-10-25T19:32:35.008Z,76.80
2017-10-25T19:35:02.540Z,76.80
2017-10-25T19:37:30.074Z,76.80
2017-10-25T19:39:57.632Z,76.80
2017-10-25T19:42:25.163Z,76.80
2017-10-25T19:44:52.692Z,77.00
2017-10-25T19:47:20.252Z,77.00
2017-10-25T19:49:47.781Z,77.00
2017-10-25T19:52:17.175Z,77.10
2017-10-25T19:54:44.760Z,76.90
2017-10-25T19:57:12.287Z,77.00
2017-10-25T19:59:39.821Z,77.30
2017-10-25T20:02:08.147Z,77.50
2017-10-25T20:04:35.676Z,77.40
2017-10-25T20:07:03.383Z,77.50
2017-10-25T20:09:30.936Z,77.50
2017-10-25T20:11:58.462Z,77.60
2017-10-25T20:14:25.998Z,77.60
2017-10-25T20:16:53.579Z,77.80
2017-10-25T20:19:21.103Z,78.00
2017-10-25T20:21:48.637Z,78.20
2017-10-25T20:24:17.206Z,78.40
2017-10-25T20:26:44.750Z,78.50
2017-10-25T20:29:12.279Z,78.70
2017-10-25T20:31:39.832Z,78.90
2017-10-25T20:34:07.355Z,79.10
2017-10-25T20:36:34.894Z,79.40
2017-10-25T20:39:02.512Z,79.40
2017-10-25T20:41:30.807Z,79.60
2017-10-25T20:43:58.328Z,79.60
2017-10-25T20:46:25.875Z,79.40
2017-10-25T20:48:53.403Z,79.50
2017-10-25T20:51:20.931Z,79.60
2017-10-25T20:53:48.483Z,79.70
2017-10-25T20:56:16.427Z,79.70
2017-10-25T20:58:43.947Z,79.70
2017-10-25T21:01:11.527Z,79.70
2017-10-25T21:03:39.056Z,79.80
2017-10-25T21:06:07.415Z,80.30
2017-10-25T21:08:35.028Z,80.30
2017-10-25T21:11:03.389Z,80.40
2017-10-25T21:13:30.910Z,80.60
2017-10-25T21:15:58.459Z,80.50
2017-10-25T21:18:25.979Z,81.00
2017-10-25T21:20:53.507Z,81.10
2017-10-25T21:23:21.083Z,81.00
2017-10-25T21:25:48.607Z,80.80
2017-10-25T21:28:17.215Z,81.10
2017-10-25T21:30:44.780Z,81.70
2017-10-25T21:33:12.308Z,80.80
2017-10-25T21:35:39.826Z,80.60
2017-10-25T21:38:07.390Z,80.50
2017-10-25T21:40:34.923Z,80.60
2017-10-25T21:43:02.451Z,80.70
2017-10-25T21:45:30.023Z,80.60
2017-10-25T21:47:58.307Z,80.70
2017-10-25T21:50:25.846Z,80.60
2017-10-25T21:52:53.398Z,80.60
2017-10-25T21:55:20.932Z,80.80
2017-10-25T21:57:48.467Z,81.00
2017-10-25T22:00:16.682Z,81.10
2017-10-25T22:02:44.208Z,81.10
2017-10-25T22:05:11.735Z,81.20
2017-10-25T22:07:45.891Z,81.20
2017-10-25T22:10:14.588Z,81.20
2017-10-25T22:12:42.115Z,81.20
2017-10-25T22:15:09.673Z,81.30
2017-10-25T22:17:37.204Z,81.20
2017-10-25T22:20:05.500Z,81.30
2017-10-25T22:22:33.835Z,81.20
2017-10-25T22:25:01.361Z,81.20
2017-10-25T22:27:28.888Z,81.10
2017-10-25T22:29:57.240Z,81.50
2017-10-25T22:32:24.776Z,81.50
2017-10-25T22:34:52.299Z,81.70
2017-10-25T22:37:19.864Z,81.70
2017-10-25T22:39:47.388Z,81.70
2017-10-25T22:42:16.428Z,81.80
2017-10-25T22:44:43.972Z,81.70
2017-10-25T22:47:11.495Z,82.10
2017-10-25T22:49:39.024Z,82.30
2017-10-25T22:52:06.595Z,82.20
2017-10-25T22:54:34.116Z,82.00
2017-10-25T22:57:01.643Z,81.70
2017-10-25T22:59:29.191Z,81.90
2017-10-25T23:01:56.719Z,81.90
2017-10-25T23:04:24.248Z,82.00
2017-10-25T23:06:51.798Z,81.80
2017-10-25T23:09:20.094Z,81.90
2017-10-25T23:11:47.616Z,82.50
2017-10-25T23:14:16.744Z,81.90
2017-10-25T23:16:44.273Z,81.90
2017-10-25T23:19:11.798Z,82.00
2017-10-25T23:21:39.347Z,82.40
2017-10-25T23:24:06.881Z,82.80
2017-10-25T23:26:34.408Z,82.80
2017-10-25T23:29:01.959Z,82.30
2017-10-25T23:31:29.500Z,82.30
2017-10-25T23:33:57.046Z,81.80
2017-10-25T23:36:24.616Z,81.90
2017-10-25T23:38:52.907Z,81.50
2017-10-25T23:41:20.440Z,81.30
2017-10-25T23:43:47.996Z,81.60
2017-10-25T23:46:16.488Z,82.00
2017-10-25T23:48:44.011Z,82.50
2017-10-25T23:51:11.564Z,82.10
2017-10-25T23:53:39.852Z,81.80
2017-10-25T23:56:07.380Z,81.80
2017-10-25T23:58:34.991Z,81.70
